Sierra Vista Municipal Libby Army Air Field
KFHU : now visible

Airfield :











YOU CAN JOIN US ON...

 
LOGIN :

Register | Disclaimer

   EN    FR    IT 

 









Legend :    VFR   Marginal VFR   IFR   Intensive IFR   Very Intensive IFR
Visi :
Ceiling :
>= 8 km
>= 3000ft
5 to 8 km
1000 to 3000 ft
1500m to 5 km
500 to 1000 ft
800 to 1500m
200 to 500 ft
< 800m
< 200 ft
Symbols :   Thunderstorms  Fog  Heavy snow  Heavy precipitations  Wind > 20 kt






- Airport Elevation : 4719 ft
- IATA code : FHU


KFHU - Sierra Vista Municipal Libby Army Air Field

CURRENT METAR :
  • 181221Z AUTO 00000KT 10SM CLR 02/00 A3023 RMK AO2 SLP216

EXPIRED METARs :
  • 181158Z AUTO 00000KT 10SM CLR 02/00 A3021 RMK AO2 SLP205 T00160001 10055 20015 56005
  • 181058Z AUTO 16003KT 10SM CLR 03/01 A3021 RMK AO2 SLP201 T00320006
  • 180958Z AUTO 17004KT 9SM CLR 03/01 A3022 RMK AO2 SLP205 T00260006

TAF TAF KFHU
Valid from the 18 at 02:00 until the 19 at 08:00 UTC


180200Z 1802/1908 26009KT 9999 SKC QNH3011INS TX19/1822Z TNM02/1812Z LAST NO AMDS AFT 1806 NEXT 2102



MET'MAP, your aeronautical weather chart ! - Copyright ORBIFLY December 2007 - Disclaimer

ORBIFLY MET'MAP TEAM :

Programming & Development : Alexandra Zaïnal
Concept & original design : Baudouin d'Aumeries
Assistance for programming : Marc-Olivier Méhu
Technical & hardware support : Manuel Goepfert

Contact : metmap@orbifly.com




SOURCES & CREDITS :

   NOAA       Earth
Advisory